createdAt,value
2022-12-06T00:09:34.727Z,0
2022-12-06T00:19:11.734Z,0
2022-12-06T00:28:48.753Z,0
2022-12-06T00:38:25.968Z,0
2022-12-06T00:48:02.511Z,0
2022-12-06T00:57:39.569Z,0
2022-12-06T01:07:16.248Z,0
2022-12-06T01:16:53.169Z,0
2022-12-06T01:26:30.831Z,0
2022-12-06T01:36:07.321Z,0
2022-12-06T01:45:43.973Z,0
2022-12-06T01:54:55.986Z,0
2022-12-06T02:04:32.107Z,0
2022-12-06T02:14:09.038Z,0
2022-12-06T02:23:46.841Z,0
2022-12-06T02:33:22.975Z,0
2022-12-06T02:42:59.400Z,0
2022-12-06T02:52:36.183Z,0
2022-12-06T03:02:13.045Z,0
2022-12-06T03:11:50.669Z,0
2022-12-06T03:21:26.825Z,0
2022-12-06T03:31:03.480Z,0
2022-12-06T03:40:40.249Z,0
2022-12-06T03:50:17.218Z,0
2022-12-06T03:59:55.338Z,0
2022-12-06T04:09:31.632Z,0
2022-12-06T04:19:08.624Z,0
2022-12-06T04:28:45.564Z,0
2022-12-06T04:38:22.290Z,0
2022-12-06T04:47:59.591Z,0
2022-12-06T04:57:36.620Z,0
2022-12-06T05:07:13.672Z,0
2022-12-06T05:16:50.279Z,0
2022-12-06T05:26:27.174Z,0
2022-12-06T05:36:04.293Z,0
2022-12-06T05:45:41.310Z,0
2022-12-06T05:55:18.092Z,0
2022-12-06T06:04:54.737Z,0
2022-12-06T06:14:31.757Z,0
2022-12-06T06:24:08.622Z,0
2022-12-06T06:33:45.259Z,0
2022-12-06T06:43:22.263Z,0
2022-12-06T06:52:59.049Z,0
2022-12-06T07:02:36.023Z,0
2022-12-06T07:12:12.703Z,5.63
2022-12-06T07:21:49.842Z,11.25
2022-12-06T07:31:27.881Z,11.25
2022-12-06T07:41:05.131Z,16.88
2022-12-06T07:50:42.065Z,22.5
2022-12-06T08:00:18.345Z,28.13
2022-12-06T08:09:55.239Z,28.13
2022-12-06T08:19:31.890Z,45
2022-12-06T08:29:11.314Z,61.88
2022-12-06T08:38:47.458Z,67.5
2022-12-06T08:48:24.332Z,67.5
2022-12-06T08:58:01.474Z,56.25
2022-12-06T09:07:38.399Z,61.88
2022-12-06T09:17:14.540Z,61.88
2022-12-06T09:26:51.333Z,50.63
2022-12-06T09:36:28.578Z,67.5
2022-12-06T09:46:05.791Z,67.5
2022-12-06T09:55:42.555Z,61.88
2022-12-06T10:05:19.405Z,84.38
2022-12-06T10:14:56.650Z,73.13
2022-12-06T10:24:34.725Z,78.75
2022-12-06T10:34:10.869Z,78.75
2022-12-06T10:43:47.964Z,84.38
2022-12-06T10:53:24.946Z,61.88
2022-12-06T11:03:01.682Z,78.75
2022-12-06T11:12:38.812Z,73.13
2022-12-06T11:22:15.593Z,78.75
2022-12-06T11:31:52.746Z,67.5
2022-12-06T11:41:29.324Z,78.75
2022-12-06T11:51:06.536Z,101.25
2022-12-06T12:00:43.612Z,101.25
2022-12-06T12:10:20.393Z,106.88
2022-12-06T12:19:57.299Z,78.75
2022-12-06T12:29:33.898Z,73.13
2022-12-06T12:39:10.544Z,78.75
2022-12-06T12:48:47.179Z,67.5
2022-12-06T12:58:23.943Z,50.63
2022-12-06T13:08:00.556Z,50.63
2022-12-06T13:17:37.397Z,50.63
2022-12-06T13:27:15.762Z,50.63
2022-12-06T13:36:52.357Z,39.38
2022-12-06T13:46:29.032Z,39.38
2022-12-06T13:56:05.735Z,33.75
2022-12-06T14:05:42.514Z,33.75
2022-12-06T14:15:19.219Z,22.5
2022-12-06T14:24:55.887Z,16.88
2022-12-06T14:34:32.449Z,11.25
2022-12-06T14:44:09.587Z,5.63
2022-12-06T14:53:46.260Z,5.63
2022-12-06T15:03:23.412Z,0
2022-12-06T15:12:59.297Z,0
2022-12-06T15:22:36.204Z,0
2022-12-06T15:32:13.133Z,0
2022-12-06T15:41:49.907Z,0
2022-12-06T15:51:26.505Z,0
2022-12-06T16:01:03.439Z,0
2022-12-06T16:11:10.049Z,0
2022-12-06T16:20:16.661Z,0
2022-12-06T16:29:53.534Z,0
2022-12-06T16:39:30.302Z,0
2022-12-06T16:49:37.136Z,0
2022-12-06T16:58:44.333Z,0
2022-12-06T17:08:22.223Z,0
2022-12-06T17:17:57.778Z,0
2022-12-06T17:27:34.994Z,0
2022-12-06T17:37:11.879Z,0
2022-12-06T17:46:48.788Z,0
2022-12-06T17:56:25.652Z,0
2022-12-06T18:06:06.156Z,0
2022-12-06T18:15:39.724Z,0
2022-12-06T18:25:16.212Z,0
2022-12-06T18:34:52.579Z,0
2022-12-06T18:44:29.383Z,0
2022-12-06T18:54:06.445Z,0
2022-12-06T19:03:43.400Z,0
2022-12-06T19:13:20.539Z,0
2022-12-06T19:22:57.498Z,0
2022-12-06T19:32:34.307Z,0
2022-12-06T19:42:11.179Z,0
2022-12-06T19:51:47.878Z,0
2022-12-06T20:01:24.476Z,0
2022-12-06T20:11:00.910Z,0
2022-12-06T20:20:37.728Z,0
2022-12-06T20:30:14.752Z,0
2022-12-06T20:39:51.658Z,0
2022-12-06T20:49:28.500Z,0
2022-12-06T20:59:05.057Z,0
2022-12-06T21:08:41.877Z,0
2022-12-06T21:18:19.856Z,0
2022-12-06T21:27:55.565Z,0
2022-12-06T21:37:32.443Z,0
2022-12-06T21:47:09.556Z,0
2022-12-06T21:56:46.516Z,0
2022-12-06T22:06:23.530Z,0
2022-12-06T22:16:00.255Z,0
2022-12-06T22:25:37.275Z,0
2022-12-06T22:35:14.155Z,0
2022-12-06T22:44:50.928Z,0
2022-12-06T22:54:27.746Z,0
2022-12-06T23:04:04.678Z,0
2022-12-06T23:13:41.255Z,0
2022-12-06T23:23:16.998Z,0
2022-12-06T23:32:53.169Z,0
2022-12-06T23:42:29.240Z,0
2022-12-06T23:52:05.810Z,0
